Time;durP1;ratioP1;P1;durP2;ratioP2;P2;SDS_P1;SDS_P2;PMS_P1;PMS_P2;Temp;Humidity;BMP_temperature;BMP_pressure;BME280_temperature;BME280_humidity;BME280_pressure;Samples;Min_cycle;Max_cycle;Signal;HPM_P1;HPM_P2
2022/01/29 00:00:57;;;;;;;53.67;33.95;;;;;;;7.11;72.64;102904.97;5102549;28;20446;-64
2022/01/29 00:03:22;;;;;;;57.80;33.00;;;;;;;7.12;72.38;102892.03;5111610;28;20050;-64
2022/01/29 00:05:48;;;;;;;52.47;32.08;;;;;;;7.11;72.56;102891.19;5093368;28;20020;-64
2022/01/29 00:08:13;;;;;;;52.78;33.17;;;;;;;7.07;72.95;102884.28;5095008;28;20505;-64
2022/01/29 00:10:40;;;;;;;57.05;33.13;;;;;;;7.15;73.17;102869.56;5099255;28;20528;-64
2022/01/29 00:13:05;;;;;;;53.65;32.53;;;;;;;7.20;72.99;102871.81;5098130;28;20512;-64
2022/01/29 00:15:30;;;;;;;55.92;31.52;;;;;;;7.24;72.82;102867.63;5100948;27;20032;-64
2022/01/29 00:17:56;;;;;;;55.88;32.63;;;;;;;7.23;72.84;102866.78;5111925;28;20118;-64
2022/01/29 00:20:21;;;;;;;55.65;33.50;;;;;;;7.24;72.78;102868.47;5111207;28;20086;-64
2022/01/29 00:22:46;;;;;;;55.50;32.97;;;;;;;7.21;72.80;102859.69;5093010;28;20024;-64
2022/01/29 00:25:12;;;;;;;59.67;34.63;;;;;;;7.11;73.17;102848.88;5101940;28;20043;-64
2022/01/29 00:27:37;;;;;;;58.13;33.13;;;;;;;7.13;72.98;102850.41;5111631;28;20035;-64
2022/01/29 00:30:08;;;;;;;54.63;33.10;;;;;;;7.14;72.93;102851.28;5101692;28;20509;-64
2022/01/29 00:32:34;;;;;;;58.97;33.47;;;;;;;7.17;73.27;102847.28;5110079;28;20035;-64
2022/01/29 00:34:59;;;;;;;57.85;33.47;;;;;;;7.15;73.12;102839.16;5101954;28;20413;-64
2022/01/29 00:37:24;;;;;;;55.63;33.42;;;;;;;7.23;73.33;102836.38;5106405;28;20124;-64
2022/01/29 00:39:50;;;;;;;58.65;31.83;;;;;;;7.28;72.95;102830.31;5104046;28;20527;-64
2022/01/29 00:42:15;;;;;;;55.60;32.50;;;;;;;7.24;72.96;102829.81;5095767;28;20066;-64
2022/01/29 00:44:40;;;;;;;59.35;34.60;;;;;;;7.18;73.00;102840.72;5107528;28;20478;-64
2022/01/29 00:47:06;;;;;;;58.97;33.33;;;;;;;7.26;72.66;102843.44;5096286;28;20077;-64
2022/01/29 00:49:31;;;;;;;51.20;31.85;;;;;;;7.28;73.28;102838.59;5104596;28;20400;-64
2022/01/29 00:51:56;;;;;;;57.72;33.17;;;;;;;7.23;73.13;102843.78;5099155;28;20057;-64
2022/01/29 00:54:22;;;;;;;59.17;34.17;;;;;;;7.23;72.75;102833.63;5095881;28;20534;-64
2022/01/29 00:56:47;;;;;;;57.58;32.67;;;;;;;7.26;72.95;102829.63;5100627;28;20469;-64
2022/01/29 00:59:12;;;;;;;59.42;33.47;;;;;;;7.24;73.42;102818.78;5104131;28;20027;-64
2022/01/29 01:01:37;;;;;;;55.60;31.33;;;;;;;7.28;73.58;102810.97;5100489;28;20055;-64
2022/01/29 01:04:03;;;;;;;58.65;31.33;;;;;;;7.22;72.93;102808.94;5094783;28;20040;-64
2022/01/29 01:06:29;;;;;;;55.55;31.98;;;;;;;7.23;73.63;102808.78;5112476;28;20180;-64
2022/01/29 01:08:54;;;;;;;53.85;32.40;;;;;;;7.25;72.98;102801.16;5101029;28;20470;-64
2022/01/29 01:11:19;;;;;;;52.58;32.38;;;;;;;7.29;73.27;102793.34;5100692;28;20040;-64
2022/01/29 01:13:44;;;;;;;56.30;32.63;;;;;;;7.30;73.49;102789.53;5093470;28;20073;-64
2022/01/29 01:16:10;;;;;;;56.28;33.55;;;;;;;7.30;73.16;102784.00;5092933;28;20028;-64
2022/01/29 01:18:35;;;;;;;52.72;31.63;;;;;;;7.26;73.46;102777.13;5097330;28;20024;-64
2022/01/29 01:21:00;;;;;;;55.33;32.10;;;;;;;7.29;73.97;102762.97;5096694;28;20353;-64
2022/01/29 01:23:25;;;;;;;53.53;32.60;;;;;;;7.24;73.66;102773.72;5096954;28;20047;-64
2022/01/29 01:25:51;;;;;;;54.05;33.25;;;;;;;7.22;74.17;102765.59;5112588;28;20023;-64
2022/01/29 01:28:16;;;;;;;56.05;32.58;;;;;;;7.26;73.99;102749.53;5103083;28;20078;-64
2022/01/29 01:30:42;;;;;;;54.63;34.08;;;;;;;7.24;73.88;102746.09;5093100;28;20467;-64
2022/01/29 01:33:07;;;;;;;51.28;32.90;;;;;;;7.20;74.03;102740.09;5099802;28;20028;-64
2022/01/29 01:35:39;;;;;;;57.17;32.42;;;;;;;7.24;74.35;102741.44;5093721;28;20442;-64
2022/01/29 01:38:18;;;;;;;60.45;33.13;;;;;;;7.25;74.33;102731.25;5100146;28;20023;-64
2022/01/29 01:40:49;;;;;;;54.15;31.67;;;;;;;7.28;74.14;102733.63;5110127;28;20044;-64
2022/01/29 01:43:15;;;;;;;50.80;32.47;;;;;;;7.25;74.41;102737.63;5106739;28;20372;-64
2022/01/29 01:45:40;;;;;;;52.38;30.92;;;;;;;7.25;74.59;102736.75;5091860;28;20073;-64
2022/01/29 01:48:06;;;;;;;54.75;30.45;;;;;;;7.25;74.69;102747.81;5093938;28;20046;-64
2022/01/29 01:50:33;;;;;;;50.05;31.25;;;;;;;7.27;74.57;102741.06;5107019;28;20031;-64
2022/01/29 01:52:58;;;;;;;45.25;31.08;;;;;;;7.26;75.14;102732.94;5100813;28;20063;-64
2022/01/29 01:55:24;;;;;;;49.42;30.38;;;;;;;7.27;75.00;102731.91;5097228;28;20067;-64
2022/01/29 01:57:50;;;;;;;48.20;29.77;;;;;;;7.23;75.68;102719.50;5094211;28;20054;-64
2022/01/29 02:00:16;;;;;;;50.75;31.45;;;;;;;7.25;75.09;102726.56;5107799;28;20028;-64
2022/01/29 02:02:41;;;;;;;50.78;30.25;;;;;;;7.29;75.28;102721.53;5097672;28;20027;-64
2022/01/29 02:05:08;;;;;;;50.05;29.88;;;;;;;7.28;75.88;102711.53;5092072;28;20111;-64
2022/01/29 02:07:34;;;;;;;46.92;29.65;;;;;;;7.18;76.01;102708.16;5095062;28;20429;-64
2022/01/29 02:10:00;;;;;;;45.13;29.52;;;;;;;7.16;75.79;102699.22;5091840;28;20039;-64
2022/01/29 02:12:28;;;;;;;43.88;29.42;;;;;;;7.17;75.50;102695.41;5091605;28;20077;-64
2022/01/29 02:14:55;;;;;;;45.70;28.25;;;;;;;7.20;75.60;102684.00;5104494;28;20035;-64
2022/01/29 02:17:21;;;;;;;47.38;27.83;;;;;;;7.22;75.32;102684.66;5107938;28;20517;-64
2022/01/29 02:19:46;;;;;;;45.58;27.85;;;;;;;7.26;76.07;102674.94;5098679;28;20032;-64
2022/01/29 02:22:11;;;;;;;45.13;28.70;;;;;;;7.25;75.69;102679.63;5104730;28;20110;-64
2022/01/29 02:24:37;;;;;;;40.83;26.95;;;;;;;7.25;75.61;102681.53;5111145;28;20024;-64
2022/01/29 02:27:02;;;;;;;44.15;27.60;;;;;;;7.26;75.43;102678.56;5099808;28;20553;-64
2022/01/29 02:29:28;;;;;;;43.13;27.45;;;;;;;7.23;75.70;102678.06;5101816;28;20028;-64
2022/01/29 02:31:58;;;;;;;43.90;26.52;;;;;;;7.16;76.19;102680.75;5093391;28;20116;-64
2022/01/29 02:34:24;;;;;;;37.63;26.75;;;;;;;7.17;76.38;102673.31;5103431;28;20032;-64
2022/01/29 02:36:51;;;;;;;39.35;26.42;;;;;;;7.17;76.47;102673.31;5108220;28;20023;-64
2022/01/29 02:39:18;;;;;;;41.33;26.35;;;;;;;7.20;76.31;102667.44;5099097;28;20058;-64
2022/01/29 02:41:45;;;;;;;37.88;25.77;;;;;;;7.22;76.74;102666.16;5105859;28;20031;-64
2022/01/29 02:44:19;;;;;;;42.40;27.63;;;;;;;7.16;76.45;102677.13;5098895;28;20032;-64
2022/01/29 02:46:53;;;;;;;39.00;26.20;;;;;;;7.19;76.41;102672.09;5110228;28;20027;-64
2022/01/29 02:49:24;;;;;;;40.45;26.80;;;;;;;7.21;76.68;102664.47;5107581;28;20031;-64
2022/01/29 02:51:55;;;;;;;41.28;27.25;;;;;;;7.10;76.88;102653.84;5095392;28;20402;-64
2022/01/29 02:54:22;;;;;;;36.80;26.38;;;;;;;7.19;77.35;102657.41;5104299;28;20177;-64
2022/01/29 02:56:47;;;;;;;37.92;25.50;;;;;;;7.17;77.12;102656.75;5104737;28;20054;-64
2022/01/29 02:59:13;;;;;;;38.95;26.00;;;;;;;7.19;77.53;102655.53;5103178;28;20024;-64
2022/01/29 03:01:39;;;;;;;36.35;26.08;;;;;;;7.17;77.48;102654.84;5101015;28;20107;-64
2022/01/29 03:04:05;;;;;;;38.60;25.75;;;;;;;7.19;76.80;102644.47;5109052;28;20041;-64
2022/01/29 03:06:30;;;;;;;37.50;25.52;;;;;;;7.20;77.02;102650.84;5103020;28;20103;-64
2022/01/29 03:08:56;;;;;;;40.05;26.80;;;;;;;7.19;76.96;102652.75;5093585;28;20053;-64
2022/01/29 03:11:22;;;;;;;38.05;26.30;;;;;;;7.20;77.03;102648.94;5100647;28;20036;-64
2022/01/29 03:13:48;;;;;;;41.38;26.30;;;;;;;7.21;77.14;102636.84;5090607;28;20055;-64
2022/01/29 03:16:14;;;;;;;37.33;25.05;;;;;;;7.25;77.22;102637.34;5094092;28;20121;-64
2022/01/29 03:18:40;;;;;;;37.28;26.45;;;;;;;7.23;76.72;102634.78;5098829;28;20478;-64
2022/01/29 03:21:05;;;;;;;39.78;26.67;;;;;;;7.18;77.19;102631.69;5101427;28;20039;-64
2022/01/29 03:23:30;;;;;;;41.63;26.92;;;;;;;7.21;77.71;102624.94;5106785;28;20483;-64
2022/01/29 03:25:55;;;;;;;37.85;26.00;;;;;;;7.21;76.92;102623.03;5099811;28;20406;-64
2022/01/29 03:28:21;;;;;;;39.15;26.33;;;;;;;7.16;77.97;102621.91;5105740;28;20076;-64
2022/01/29 03:30:46;;;;;;;41.65;27.00;;;;;;;7.20;77.64;102617.72;5101577;28;20102;-64
2022/01/29 03:33:11;;;;;;;40.00;26.92;;;;;;;7.19;77.58;102616.84;5108041;28;20474;-64
2022/01/29 03:35:37;;;;;;;40.40;27.60;;;;;;;7.21;77.43;102611.13;5101701;28;20047;-64
2022/01/29 03:38:03;;;;;;;43.00;26.80;;;;;;;7.19;77.75;102610.44;5106158;28;20533;-64
2022/01/29 03:40:29;;;;;;;42.42;27.20;;;;;;;7.21;77.28;102613.91;5104519;28;20119;-64
2022/01/29 03:43:05;;;;;;;42.88;28.23;;;;;;;7.16;77.57;102606.19;5104204;28;20079;-64
2022/01/29 03:45:31;;;;;;;42.47;27.67;;;;;;;7.20;77.95;102601.16;5100358;28;20099;-64
2022/01/29 03:47:56;;;;;;;39.72;25.52;;;;;;;7.22;78.11;102590.75;5105075;28;20477;-64
2022/01/29 03:50:21;;;;;;;41.85;26.73;;;;;;;7.21;77.62;102594.56;5103970;28;20046;-64
2022/01/29 03:52:46;;;;;;;42.10;26.90;;;;;;;7.13;77.70;102590.84;5107541;28;20360;-64
2022/01/29 03:55:12;;;;;;;44.55;27.40;;;;;;;7.17;78.32;102596.84;5098924;28;20520;-64
2022/01/29 03:57:37;;;;;;;40.63;26.17;;;;;;;7.17;77.54;102591.31;5113317;28;20185;-64
2022/01/29 04:00:05;;;;;;;40.25;24.98;;;;;;;7.18;78.14;102586.66;5106873;28;20035;-64
2022/01/29 04:02:31;;;;;;;36.92;24.67;;;;;;;7.22;77.49;102585.22;5093791;28;20501;-64
2022/01/29 04:04:56;;;;;;;38.30;24.50;;;;;;;7.25;78.15;102582.09;5094072;28;20020;-64
2022/01/29 04:07:22;;;;;;;38.90;25.52;;;;;;;7.25;77.62;102577.41;5112746;28;20036;-64
2022/01/29 04:09:49;;;;;;;34.42;23.35;;;;;;;7.29;77.42;102583.44;5105573;28;20020;-64
2022/01/29 04:12:15;;;;;;;39.80;24.50;;;;;;;7.25;77.28;102591.22;5092682;28;20040;-64
2022/01/29 04:14:41;;;;;;;37.20;24.60;;;;;;;7.27;77.53;102582.75;5103696;28;20548;-64
2022/01/29 04:17:07;;;;;;;33.50;23.48;;;;;;;7.29;77.56;102591.72;5098199;28;20051;-64
2022/01/29 04:19:34;;;;;;;37.45;24.27;;;;;;;7.28;77.95;102576.19;5095565;28;20036;-64
2022/01/29 04:21:59;;;;;;;35.90;22.50;;;;;;;7.30;77.63;102577.69;5093886;28;20471;-64
2022/01/29 04:24:24;;;;;;;35.83;21.58;;;;;;;7.33;78.00;102569.03;5101593;28;20023;-64
2022/01/29 04:26:50;;;;;;;35.40;23.20;;;;;;;7.34;77.73;102570.75;5101601;28;20079;-64
2022/01/29 04:29:16;;;;;;;33.72;22.58;;;;;;;7.39;77.67;102567.44;5099506;28;20038;-64
2022/01/29 04:31:58;;;;;;;34.58;22.10;;;;;;;7.33;77.92;102566.28;5105310;28;20107;-64
2022/01/29 04:34:24;;;;;;;32.95;21.90;;;;;;;7.35;78.52;102561.44;5104054;28;20036;-64
2022/01/29 04:36:49;;;;;;;34.80;22.88;;;;;;;7.36;77.95;102560.38;5108391;28;20035;-64
2022/01/29 04:39:14;;;;;;;33.72;22.13;;;;;;;7.41;77.42;102562.56;5094829;28;20732;-64
2022/01/29 04:41:40;;;;;;;35.00;22.17;;;;;;;7.41;78.25;102565.34;5108084;28;20020;-64
2022/01/29 04:44:05;;;;;;;33.03;22.42;;;;;;;7.38;78.00;102560.19;5107884;28;20487;-64
2022/01/29 04:46:30;;;;;;;36.42;22.77;;;;;;;7.40;78.54;102558.09;5093425;28;20028;-64
2022/01/29 04:48:56;;;;;;;35.10;23.85;;;;;;;7.37;78.37;102547.44;5092259;28;20113;-64
2022/01/29 04:51:21;;;;;;;33.72;22.85;;;;;;;7.39;78.01;102556.41;5109608;28;20036;-64
2022/01/29 04:53:47;;;;;;;38.58;23.75;;;;;;;7.38;79.05;102549.13;5103309;28;20024;-64
2022/01/29 04:56:13;;;;;;;39.22;23.98;;;;;;;7.35;78.76;102549.53;5104615;28;20031;-64
2022/01/29 04:58:38;;;;;;;36.97;23.77;;;;;;;7.35;79.23;102546.78;5110258;28;20111;-64
2022/01/29 05:01:04;;;;;;;33.88;23.50;;;;;;;7.38;79.07;102546.38;5110279;28;20023;-64
2022/01/29 05:03:30;;;;;;;37.30;23.75;;;;;;;7.43;78.95;102534.75;5107598;28;20123;-64
2022/01/29 05:05:56;;;;;;;39.90;24.88;;;;;;;7.43;79.26;102530.09;5100518;28;20157;-64
2022/01/29 05:08:22;;;;;;;37.20;24.58;;;;;;;7.46;79.26;102521.41;5102074;28;20047;-64
2022/01/29 05:10:47;;;;;;;36.53;23.67;;;;;;;7.44;78.98;102529.03;5097700;28;20487;-64
2022/01/29 05:13:17;;;;;;;38.25;24.85;;;;;;;7.44;79.39;102531.81;5095677;28;20378;-64
2022/01/29 05:16:06;;;;;;;35.50;23.63;;;;;;;7.46;79.68;102529.69;5097472;28;20039;-64
2022/01/29 05:26:59;;;;;;;42.28;24.75;;;;;;;7.49;79.81;102509.97;5103181;28;20410;-64
2022/01/29 05:29:28;;;;;;;38.03;26.52;;;;;;;7.46;79.67;102502.06;5103297;28;20023;-64
2022/01/29 05:31:54;;;;;;;40.35;24.63;;;;;;;7.49;79.14;102501.69;5093116;28;20586;-64
2022/01/29 05:34:20;;;;;;;41.20;27.45;;;;;;;7.46;79.88;102504.81;5098867;28;20115;-64
2022/01/29 05:36:45;;;;;;;40.83;27.33;;;;;;;7.49;79.53;102509.13;5109683;28;20085;-64
2022/01/29 05:39:10;;;;;;;44.55;27.58;;;;;;;7.49;80.09;102512.75;5102919;28;20091;-64
2022/01/29 05:41:36;;;;;;;43.78;26.92;;;;;;;7.53;79.83;102505.78;5103356;28;20028;-64
2022/01/29 05:44:01;;;;;;;39.17;27.02;;;;;;;7.52;79.63;102517.88;5100995;28;20043;-64
2022/01/29 05:46:26;;;;;;;42.67;28.27;;;;;;;7.52;79.56;102512.38;5109120;28;20033;-64
2022/01/29 05:48:51;;;;;;;43.90;27.92;;;;;;;7.53;79.63;102508.53;5091875;28;20074;-64
2022/01/29 05:51:17;;;;;;;40.13;26.95;;;;;;;7.54;79.75;102507.47;5098629;28;20036;-64
2022/01/29 05:53:42;;;;;;;40.22;26.92;;;;;;;7.57;79.69;102492.44;5094197;28;20034;-64
2022/01/29 05:56:07;;;;;;;41.53;27.83;;;;;;;7.57;79.98;102496.06;5097349;28;20466;-64
2022/01/29 05:58:33;;;;;;;39.05;27.15;;;;;;;7.57;80.03;102490.53;5096188;28;20047;-64
2022/01/29 06:00:58;;;;;;;41.85;27.33;;;;;;;7.58;80.28;102500.56;5101832;28;20020;-64
2022/01/29 06:03:24;;;;;;;40.20;27.30;;;;;;;7.57;79.75;102493.28;5102916;28;20051;-64
2022/01/29 06:05:50;;;;;;;41.92;27.27;;;;;;;7.63;79.70;102498.06;5107057;28;20031;-64
2022/01/29 06:08:15;;;;;;;40.38;27.58;;;;;;;7.56;80.16;102499.88;5107704;28;20147;-64
2022/01/29 06:10:41;;;;;;;37.75;26.60;;;;;;;7.63;80.04;102491.69;5100320;28;20035;-64
2022/01/29 06:13:11;;;;;;;43.10;27.17;;;;;;;7.64;80.74;102487.84;5100928;28;20032;-64
2022/01/29 06:15:41;;;;;;;36.95;26.80;;;;;;;7.66;80.40;102490.41;5101703;28;20375;-64
2022/01/29 06:18:07;;;;;;;43.65;28.35;;;;;;;7.60;79.82;102479.09;5100008;28;20024;-64
2022/01/29 06:20:32;;;;;;;47.15;28.40;;;;;;;7.59;80.45;102484.81;5104973;28;20532;-64
2022/01/29 06:22:58;;;;;;;41.08;28.42;;;;;;;7.58;80.79;102483.09;5107389;28;20028;-63
2022/01/29 06:25:24;;;;;;;48.70;30.58;;;;;;;7.56;80.59;102480.53;5097057;28;20027;-63
2022/01/29 06:27:49;;;;;;;40.13;28.50;;;;;;;7.63;80.40;102469.56;5101262;28;20481;-64
2022/01/29 06:30:15;;;;;;;43.72;28.58;;;;;;;7.62;80.61;102474.25;5098342;28;20024;-63
2022/01/29 06:32:41;;;;;;;43.78;29.08;;;;;;;7.67;80.50;102476.41;5099926;28;20387;-63
2022/01/29 06:35:07;;;;;;;47.63;30.83;;;;;;;7.71;80.23;102480.50;5098671;28;20075;-64
2022/01/29 06:37:33;;;;;;;39.38;27.33;;;;;;;7.76;80.99;102475.25;5093064;28;20409;-63
2022/01/29 06:39:58;;;;;;;44.63;28.45;;;;;;;7.74;80.62;102479.25;5095883;28;20032;-66
2022/01/29 06:42:24;;;;;;;41.83;28.42;;;;;;;7.75;80.48;102470.78;5107177;28;20035;-65
2022/01/29 06:44:49;;;;;;;45.35;29.77;;;;;;;7.75;80.15;102475.44;5102041;28;20135;-65
2022/01/29 06:47:15;;;;;;;43.47;29.48;;;;;;;7.77;80.56;102473.31;5108250;28;20024;-64
2022/01/29 06:49:40;;;;;;;42.10;29.42;;;;;;;7.77;80.39;102465.88;5105458;28;20035;-65
2022/01/29 06:52:05;;;;;;;41.47;29.10;;;;;;;7.72;80.92;102457.34;5096926;28;20542;-65
2022/01/29 06:54:31;;;;;;;44.45;30.30;;;;;;;7.77;80.70;102465.88;5102571;28;20039;-64
2022/01/29 06:56:56;;;;;;;38.97;29.40;;;;;;;7.79;80.58;102468.47;5096275;28;20142;-64
2022/01/29 06:59:21;;;;;;;43.00;29.35;;;;;;;7.78;80.98;102458.44;5106582;28;20054;-64
2022/01/29 07:01:46;;;;;;;39.50;29.13;;;;;;;7.72;80.96;102451.81;5092199;28;20114;-63
2022/01/29 07:04:12;;;;;;;40.00;28.08;;;;;;;7.76;81.14;102447.59;5101288;28;20039;-63
2022/01/29 07:06:37;;;;;;;43.20;29.83;;;;;;;7.72;81.01;102448.19;5101998;28;20376;-61
2022/01/29 07:09:03;;;;;;;41.53;29.15;;;;;;;7.75;80.73;102447.81;5107570;28;20024;-64
2022/01/29 07:11:28;;;;;;;42.95;31.20;;;;;;;7.74;81.46;102443.31;5103267;28;20111;-64
2022/01/29 07:14:03;;;;;;;41.00;29.70;;;;;;;7.74;81.58;102443.31;5090604;28;20020;-64
2022/01/29 07:16:34;;;;;;;41.55;29.23;;;;;;;7.77;81.79;102442.91;5091536;28;20039;-64
2022/01/29 07:18:59;;;;;;;40.58;29.35;;;;;;;7.77;81.66;102434.63;5091048;28;20032;-64
2022/01/29 07:21:25;;;;;;;39.33;28.67;;;;;;;7.79;81.23;102427.00;5094439;28;20032;-63
2022/01/29 07:23:50;;;;;;;41.22;28.95;;;;;;;7.79;81.57;102440.84;5089724;28;20479;-63
2022/01/29 07:26:15;;;;;;;38.50;28.20;;;;;;;7.82;81.24;102432.13;5093315;28;20052;-63
2022/01/29 07:28:41;;;;;;;42.60;28.88;;;;;;;7.84;81.51;102435.56;5094302;28;20032;-64
2022/01/29 07:31:06;;;;;;;42.55;28.95;;;;;;;7.87;81.78;102438.78;5099474;28;20046;-63
2022/01/29 07:33:32;;;;;;;39.95;27.13;;;;;;;7.87;81.37;102437.94;5094603;28;20036;-64
2022/01/29 07:35:57;;;;;;;36.42;27.50;;;;;;;7.86;81.03;102439.84;5097437;28;20081;-64
2022/01/29 07:38:23;;;;;;;40.25;28.45;;;;;;;7.88;81.85;102442.41;5106967;28;20491;-64
2022/01/29 07:40:52;;;;;;;38.50;28.30;;;;;;;7.89;81.85;102433.06;5099575;28;20120;-65
2022/01/29 07:43:17;;;;;;;35.53;26.83;;;;;;;7.93;82.16;102434.38;5112779;28;20053;-64
2022/01/29 07:45:43;;;;;;;38.00;27.15;;;;;;;7.95;81.74;102425.91;5112724;28;20035;-64
2022/01/29 07:48:08;;;;;;;35.70;27.23;;;;;;;7.95;81.49;102435.06;5100884;28;20028;-63
2022/01/29 07:50:33;;;;;;;34.88;27.23;;;;;;;7.96;81.26;102431.22;5110752;28;20084;-63
2022/01/29 07:52:59;;;;;;;38.30;28.33;;;;;;;7.98;81.70;102425.50;5113293;28;20028;-64
2022/01/29 07:55:30;;;;;;;37.03;27.25;;;;;;;7.97;82.29;102423.78;5112070;28;20363;-64
2022/01/29 07:57:55;;;;;;;34.78;27.08;;;;;;;7.99;82.01;102422.53;5102754;28;20086;-64
2022/01/29 08:00:21;;;;;;;35.45;27.10;;;;;;;7.99;82.30;102424.44;5113179;28;20051;-64
2022/01/29 08:02:46;;;;;;;35.67;26.55;;;;;;;8.01;82.73;102417.66;5107214;28;20427;-64
2022/01/29 08:05:11;;;;;;;36.97;26.88;;;;;;;8.02;82.44;102416.63;5112064;28;20030;-64
2022/01/29 08:07:38;;;;;;;38.70;28.48;;;;;;;8.04;82.29;102421.94;5110540;28;20603;-64
2022/01/29 08:10:05;;;;;;;36.95;27.42;;;;;;;8.05;81.95;102410.66;5113035;28;20050;-63
2022/01/29 08:12:30;;;;;;;37.92;27.98;;;;;;;8.06;82.78;102415.16;5111358;28;20039;-63
2022/01/29 08:14:55;;;;;;;35.13;25.98;;;;;;;8.10;82.23;102421.16;5104413;28;20020;-64
2022/01/29 08:17:20;;;;;;;35.65;28.17;;;;;;;8.12;82.94;102413.50;5111182;28;20028;-64
2022/01/29 08:19:48;;;;;;;35.35;26.60;;;;;;;8.16;82.00;102400.13;5108736;28;20027;-64
2022/01/29 08:22:13;;;;;;;41.85;27.83;;;;;;;8.15;82.02;102395.66;5109308;28;20073;-63
2022/01/29 08:24:39;;;;;;;43.30;29.30;;;;;;;8.13;82.47;102398.63;5111952;28;20626;-64
2022/01/29 08:27:05;;;;;;;34.10;26.25;;;;;;;8.17;82.20;102393.53;5110695;28;20023;-64
2022/01/29 08:29:30;;;;;;;38.50;28.08;;;;;;;8.18;83.03;102390.59;5100728;28;20045;-64
2022/01/29 08:31:55;;;;;;;37.47;27.95;;;;;;;8.18;82.77;102395.28;5100818;28;20039;-63
2022/01/29 08:34:20;;;;;;;36.17;27.35;;;;;;;8.22;82.06;102391.91;5099142;28;20040;-63
2022/01/29 08:36:46;;;;;;;37.00;27.98;;;;;;;8.23;82.27;102388.06;5098313;28;20027;-64
2022/01/29 08:39:11;;;;;;;37.03;26.92;;;;;;;8.22;82.34;102386.38;5091207;28;20398;-63
2022/01/29 08:41:36;;;;;;;38.05;28.25;;;;;;;8.23;82.79;102388.06;5106840;28;20024;-63
2022/01/29 08:44:02;;;;;;;31.48;25.45;;;;;;;8.27;82.58;102378.31;5101248;28;20028;-65
2022/01/29 08:46:27;;;;;;;34.28;27.10;;;;;;;8.24;82.66;102377.88;5093653;28;20087;-63
2022/01/29 08:48:52;;;;;;;37.25;27.00;;;;;;;8.25;82.92;102379.56;5107544;28;20040;-63
2022/01/29 08:51:18;;;;;;;37.17;26.45;;;;;;;8.27;83.00;102369.16;5101115;28;20039;-64
2022/01/29 08:53:43;;;;;;;33.97;27.35;;;;;;;8.28;82.97;102371.72;5102542;28;20027;-63
2022/01/29 08:56:09;;;;;;;38.58;27.02;;;;;;;8.28;82.88;102380.03;5110391;28;20034;-64
2022/01/29 08:58:34;;;;;;;33.90;27.30;;;;;;;8.29;82.45;102369.81;5098715;28;20040;-64
2022/01/29 09:01:00;;;;;;;34.15;26.65;;;;;;;8.32;82.64;102363.88;5100366;28;20543;-63
2022/01/29 09:03:25;;;;;;;35.08;27.30;;;;;;;8.38;82.28;102373.34;5092986;28;20034;-64
2022/01/29 09:05:51;;;;;;;34.97;27.52;;;;;;;8.38;82.70;102371.41;5097233;28;20031;-64
2022/01/29 09:08:17;;;;;;;32.13;26.20;;;;;;;8.41;82.67;102371.03;5110332;28;20114;-65
2022/01/29 09:10:42;;;;;;;34.13;26.50;;;;;;;8.41;82.93;102364.59;5096721;28;20093;-64
2022/01/29 09:13:09;;;;;;;31.75;24.55;;;;;;;8.44;82.80;102366.97;5099227;28;20542;-61
2022/01/29 09:15:34;;;;;;;35.58;26.35;;;;;;;8.44;83.07;102361.44;5108441;28;20458;-61
2022/01/29 09:17:59;;;;;;;29.77;24.40;;;;;;;8.48;82.31;102354.44;5108903;28;20089;-61
2022/01/29 09:20:25;;;;;;;32.13;25.08;;;;;;;8.50;82.63;102355.97;5099994;28;20024;-62
2022/01/29 09:22:50;;;;;;;33.22;25.73;;;;;;;8.52;82.16;102362.13;5110580;28;20039;-63
2022/01/29 09:25:16;;;;;;;31.83;24.27;;;;;;;8.50;82.50;102346.81;5112990;27;20042;-62
2022/01/29 09:27:41;;;;;;;30.17;24.70;;;;;;;8.50;82.72;102358.72;5109109;28;20486;-62
2022/01/29 09:30:07;;;;;;;29.27;23.70;;;;;;;8.52;82.72;102353.84;5098400;28;20042;-63
2022/01/29 09:32:33;;;;;;;28.35;22.23;;;;;;;8.55;82.58;102347.91;5097038;28;20038;-63
2022/01/29 09:34:58;;;;;;;28.90;24.13;;;;;;;8.55;82.75;102358.13;5110717;28;20035;-62
2022/01/29 09:37:24;;;;;;;29.88;23.25;;;;;;;8.56;82.37;102357.91;5110781;28;20099;-62
2022/01/29 09:39:49;;;;;;;32.53;23.20;;;;;;;8.57;82.22;102356.88;5109063;28;20114;-63
2022/01/29 09:42:15;;;;;;;29.33;23.27;;;;;;;8.62;81.80;102359.03;5110370;28;20486;-63
2022/01/29 09:44:42;;;;;;;27.92;23.75;;;;;;;8.64;81.92;102361.56;5108470;28;20068;-63
2022/01/29 09:47:07;;;;;;;29.88;24.10;;;;;;;8.64;82.53;102356.03;5106901;28;20030;-63
2022/01/29 09:49:34;;;;;;;30.50;25.23;;;;;;;8.67;82.43;102361.16;5098621;28;20036;-62
2022/01/29 09:52:00;;;;;;;28.60;24.77;;;;;;;8.68;82.40;102357.34;5110595;28;20035;-63
2022/01/29 09:54:26;;;;;;;26.98;23.50;;;;;;;8.66;82.47;102363.09;5106187;28;20020;-63
2022/01/29 09:56:51;;;;;;;27.48;23.60;;;;;;;8.70;82.42;102355.25;5094221;28;20092;-62
2022/01/29 09:59:16;;;;;;;29.85;22.70;;;;;;;8.72;81.84;102358.63;5107628;28;20054;-62
2022/01/29 10:01:41;;;;;;;27.83;23.10;;;;;;;8.74;82.41;102362.06;5108643;28;20075;-63
2022/01/29 10:04:07;;;;;;;28.67;24.25;;;;;;;8.77;82.27;102358.91;5105633;28;20036;-63
2022/01/29 10:06:34;;;;;;;29.42;23.77;;;;;;;8.79;82.08;102349.31;5108528;28;20038;-63
2022/01/29 10:09:01;;;;;;;27.77;23.25;;;;;;;8.81;81.39;102346.34;5105556;28;20126;-60
2022/01/29 10:11:27;;;;;;;29.75;24.40;;;;;;;8.80;82.17;102342.75;5097437;28;20023;-64
2022/01/29 10:14:00;;;;;;;26.67;23.50;;;;;;;8.81;81.74;102349.13;5099668;28;20028;-64
2022/01/29 10:16:27;;;;;;;27.42;23.10;;;;;;;8.83;81.99;102339.53;5098225;28;20370;-64
2022/01/29 10:19:10;;;;;;;26.77;23.00;;;;;;;8.88;81.21;102344.44;5107365;27;20069;-63
2022/01/29 10:21:42;;;;;;;;;;;;;;;8.94;81.42;102335.34;5104357;28;20039;-64
2022/01/29 10:24:10;;;;;;;28.95;23.90;;;;;;;8.93;81.46;102339.16;5097092;28;20278;-64
2022/01/29 10:26:38;;;;;;;27.98;22.58;;;;;;;8.93;81.34;102333.63;5101128;28;20020;-65
2022/01/29 10:29:08;;;;;;;26.67;23.65;;;;;;;8.95;81.42;102328.72;5101944;28;20038;-65
2022/01/29 10:31:51;;;;;;;29.08;23.10;;;;;;;9.00;81.79;102328.09;5097858;28;20427;-65
2022/01/29 10:34:23;;;;;;;25.55;22.52;;;;;;;9.02;81.26;102320.47;5095696;28;20035;-65
2022/01/29 10:37:21;;;;;;;25.02;22.23;;;;;;;9.05;81.47;102303.44;5096479;28;20060;-65
2022/01/29 10:40:00;;;;;;;34.20;26.30;;;;;;;9.05;81.26;102304.28;5107826;27;20024;-65
2022/01/29 10:42:29;;;;;;;25.48;22.20;;;;;;;9.07;80.65;102304.06;5105169;27;20086;-65
2022/01/29 10:44:59;;;;;;;27.88;23.15;;;;;;;9.07;80.63;102307.69;5103907;28;20069;-65
2022/01/29 10:47:26;;;;;;;24.90;20.73;;;;;;;9.10;80.70;102306.44;5103686;28;20038;-65
2022/01/29 10:49:54;;;;;;;23.67;20.45;;;;;;;9.13;80.73;102294.09;5103772;28;20031;-65
2022/01/29 10:52:31;;;;;;;22.40;19.98;;;;;;;9.16;81.13;102299.22;5097205;28;20036;-65
2022/01/29 10:54:59;;;;;;;26.20;19.90;;;;;;;9.16;80.45;102290.91;5102827;28;20027;-61
2022/01/29 10:57:33;;;;;;;21.15;18.95;;;;;;;9.17;80.48;102290.69;5101515;28;20039;-62
2022/01/29 10:59:58;;;;;;;19.15;17.15;;;;;;;9.20;80.14;102290.28;5102379;28;20826;-62
2022/01/29 11:02:30;;;;;;;22.95;17.58;;;;;;;9.21;79.78;102288.34;5106308;28;20024;-62
2022/01/29 11:04:56;;;;;;;20.42;16.85;;;;;;;9.24;79.71;102293.47;5107485;28;20054;-61
2022/01/29 11:07:27;;;;;;;18.83;16.02;;;;;;;9.25;79.97;102292.41;5104883;28;20050;-62
2022/01/29 11:09:52;;;;;;;22.60;17.48;;;;;;;9.27;80.00;102287.50;5100234;28;20031;-62
2022/01/29 11:12:23;;;;;;;21.20;16.83;;;;;;;9.28;79.29;102269.84;5102317;28;20792;-62
2022/01/29 11:14:50;;;;;;;21.98;15.63;;;;;;;9.28;79.28;102270.69;5107636;28;20042;-61
2022/01/29 11:17:18;;;;;;;18.92;15.02;;;;;;;9.31;79.55;102274.94;5103103;28;20073;-62
2022/01/29 11:19:45;;;;;;;15.32;13.45;;;;;;;9.34;79.47;102280.06;5104780;28;20551;-61
2022/01/29 11:22:11;;;;;;;18.45;14.80;;;;;;;9.33;79.09;102247.88;5099604;28;20114;-62